Volga, SD

1:08 PM CDT on June 25, 2017 (GMT -0500)
213th Street | | Change Station

Elev 1755 ft 44.30 °N, 97.02 °W | Updated 14 minutes ago

Partly Cloudy
Partly Cloudy
64.8 °F
Feels Like 64.8 °F
N
1.9
Wind Variable Wind from West
Gusts 5.0 mph

Today
High -- | Low -- °F
--% Chance of Precip.
Yesterday
High -- | Low -- °F
Precip. -- in
Pressure 30.32 in
Visibility -9999.0 miles
Clouds Clear
Dew Point 49 °F
Humidity 56%
Rainfall 0.00 in
Snow Depth Not available.
5:44 AM 9:15 PM
Waxing Crescent, 4% visible
METAR KBKX 251756Z AUTO 34012G21KT CLR 18/06 A3028 RMK AO2 SLP266 T01830056 10183 20094 58004 RVRNO $
Pressure 30.32 in
Visibility -9999.0 miles
Clouds Clear
Dew Point 49 °F
Humidity 56%
Rainfall 0.00 in
Snow Depth Not available.
5:44 AM 9:15 PM
Waxing Crescent, 4% visible
METAR KBKX 251756Z AUTO 34012G21KT CLR 18/06 A3028 RMK AO2 SLP266 T01830056 10183 20094 58004 RVRNO $

Get Severe Weather Alerts

Thanks for signing up!

Be on the lookout for a verification email in your inbox.

You'll start receiving the daily forecast at 6 AM.

×

10-Day Weather Forecast

Almanac

Astronomy

Jun. 25, 2017 Rise Set
Actual Time
Civil Twilight
Nautical Twilight
Astronomical Twilight
Moon
Length of Visible Light
Length of Day
Tomorrow will be .
, % of the Moon is Illuminated

Today's Extremes

State Highs State Lows

Community

WunderPhotos

Category 6

Welcome to Category 6. This is the collective home for Weather Underground's featured writeups by Dr. Jeff Masters (right), Bob Henson (left), Chris Burt, and other regular contributors.

Nearby

Air Quality

  Air Quality AQ Index Pollutant
Not available.

Snow Depth

Station Depth Elevation

Earthquake Activity

City Distance Mag. Time & Date
Minimum magnitude displayed is 2.5.

Coastal Water Temperatures

Place Temperature

Stations

Nearby Weather Stations

Station Location Temp. Windchill Dew Point Humidity Wind Precip. Elev Updated Type
                   

Watches & Warnings

There are currently no watches in effect.